sensor_id;sensor_type;location;lat;lon;timestamp;pressure;altitude;pressure_sealevel;temperature;humidity
44751;BME280;30477;48.224;11.470;2022-12-29T00:01:27;95863.75;;;5.54;53.89
44751;BME280;30477;48.224;11.470;2022-12-29T00:03:53;95857.69;;;5.55;53.87
44751;BME280;30477;48.224;11.470;2022-12-29T00:06:18;95857.34;;;5.60;53.94
44751;BME280;30477;48.224;11.470;2022-12-29T00:08:44;95854.66;;;5.61;53.71
44751;BME280;30477;48.224;11.470;2022-12-29T00:11:11;95852.00;;;5.63;53.62
44751;BME280;30477;48.224;11.470;2022-12-29T00:13:37;95853.63;;;5.64;53.64
44751;BME280;30477;48.224;11.470;2022-12-29T00:16:21;95845.81;;;5.65;53.38
44751;BME280;30477;48.224;11.470;2022-12-29T00:18:47;95838.00;;;5.67;53.47
44751;BME280;30477;48.224;11.470;2022-12-29T00:21:22;95836.94;;;5.69;53.28
44751;BME280;30477;48.224;11.470;2022-12-29T00:24:14;95843.94;;;5.67;53.04
44751;BME280;30477;48.224;11.470;2022-12-29T00:27:12;95838.81;;;5.67;53.02
44751;BME280;30477;48.224;11.470;2022-12-29T00:29:56;95843.94;;;5.67;53.01
44751;BME280;30477;48.224;11.470;2022-12-29T00:32:40;95836.00;;;5.70;52.89
44751;BME280;30477;48.224;11.470;2022-12-29T00:35:28;95841.84;;;5.73;52.98
44751;BME280;30477;48.224;11.470;2022-12-29T00:37:55;95840.91;;;5.74;52.76
44751;BME280;30477;48.224;11.470;2022-12-29T00:40:40;95842.66;;;5.73;52.57
44751;BME280;30477;48.224;11.470;2022-12-29T00:43:38;95840.78;;;5.75;52.54
44751;BME280;30477;48.224;11.470;2022-12-29T00:46:21;95843.25;;;5.77;52.64
44751;BME280;30477;48.224;11.470;2022-12-29T00:48:47;95842.44;;;5.76;52.47
44751;BME280;30477;48.224;11.470;2022-12-29T00:51:30;95839.97;;;5.75;52.52
44751;BME280;30477;48.224;11.470;2022-12-29T00:53:56;95837.66;;;5.72;52.68
44751;BME280;30477;48.224;11.470;2022-12-29T00:56:21;95836.94;;;5.69;52.58
44751;BME280;30477;48.224;11.470;2022-12-29T00:58:46;95833.53;;;5.69;52.44
44751;BME280;30477;48.224;11.470;2022-12-29T01:01:12;95838.09;;;5.65;52.53
44751;BME280;30477;48.224;11.470;2022-12-29T01:03:38;95845.69;;;5.67;52.26
44751;BME280;30477;48.224;11.470;2022-12-29T01:06:06;95850.94;;;5.65;52.50
44751;BME280;30477;48.224;11.470;2022-12-29T01:08:32;95845.81;;;5.65;52.64
44751;BME280;30477;48.224;11.470;2022-12-29T01:11:06;95851.66;;;5.67;52.54
44751;BME280;30477;48.224;11.470;2022-12-29T01:13:33;95852.56;;;5.66;52.43
44751;BME280;30477;48.224;11.470;2022-12-29T01:15:59;95846.63;;;5.66;52.34
44751;BME280;30477;48.224;11.470;2022-12-29T01:18:25;95856.06;;;5.65;52.47
44751;BME280;30477;48.224;11.470;2022-12-29T01:20:50;95853.28;;;5.68;52.66
44751;BME280;30477;48.224;11.470;2022-12-29T01:23:16;95843.94;;;5.67;52.59
44751;BME280;30477;48.224;11.470;2022-12-29T01:25:42;95853.72;;;5.62;52.43
44751;BME280;30477;48.224;11.470;2022-12-29T01:28:07;95853.03;;;5.60;52.41
44751;BME280;30477;48.224;11.470;2022-12-29T01:30:34;95851.28;;;5.61;52.66
44751;BME280;30477;48.224;11.470;2022-12-29T01:33:00;95853.72;;;5.62;52.54
44751;BME280;30477;48.224;11.470;2022-12-29T01:35:25;95855.38;;;5.63;52.67
44751;BME280;30477;48.224;11.470;2022-12-29T01:37:51;95854.44;;;5.64;52.65
44751;BME280;30477;48.224;11.470;2022-12-29T01:40:16;95856.28;;;5.62;52.56
44751;BME280;30477;48.224;11.470;2022-12-29T01:42:42;95857.44;;;5.58;52.83
44751;BME280;30477;48.224;11.470;2022-12-29T01:45:11;95855.72;;;5.59;52.68
44751;BME280;30477;48.224;11.470;2022-12-29T01:50:23;95853.25;;;5.57;52.74
44751;BME280;30477;48.224;11.470;2022-12-29T01:52:56;95854.19;;;5.56;52.61
44751;BME280;30477;48.224;11.470;2022-12-29T01:55:25;95851.03;;;5.53;52.71
44751;BME280;30477;48.224;11.470;2022-12-29T01:57:53;95851.63;;;5.56;52.86
44751;BME280;30477;48.224;11.470;2022-12-29T02:00:20;95843.91;;;5.56;52.74
44751;BME280;30477;48.224;11.470;2022-12-29T02:02:52;95844.63;;;5.58;52.71
44751;BME280;30477;48.224;11.470;2022-12-29T02:07:59;95831.66;;;5.60;52.61
44751;BME280;30477;48.224;11.470;2022-12-29T02:10:28;95831.78;;;5.58;52.57
44751;BME280;30477;48.224;11.470;2022-12-29T02:12:55;95836.81;;;5.60;52.47
44751;BME280;30477;48.224;11.470;2022-12-29T02:15:55;95825.38;;;5.64;52.57
44751;BME280;30477;48.224;11.470;2022-12-29T02:21:56;95826.66;;;5.69;52.02
44751;BME280;30477;48.224;11.470;2022-12-29T02:40:56;95815.47;;;5.82;51.19
44751;BME280;30477;48.224;11.470;2022-12-29T02:49:37;95805.19;;;5.82;50.72
44751;BME280;30477;48.224;11.470;2022-12-29T02:54:29;95811.97;;;5.83;50.40
44751;BME280;30477;48.224;11.470;2022-12-29T02:59:58;95802.72;;;5.92;50.14
44751;BME280;30477;48.224;11.470;2022-12-29T03:05:19;95803.81;;;6.00;49.97
44751;BME280;30477;48.224;11.470;2022-12-29T03:16:03;95797.97;;;6.09;49.55
44751;BME280;30477;48.224;11.470;2022-12-29T03:21:53;95793.53;;;6.12;49.34
44751;BME280;30477;48.224;11.470;2022-12-29T03:24:11;95784.66;;;6.16;49.35
44751;BME280;30477;48.224;11.470;2022-12-29T03:26:36;95789.78;;;6.16;49.15
44751;BME280;30477;48.224;11.470;2022-12-29T03:29:05;95782.78;;;6.18;49.17
44751;BME280;30477;48.224;11.470;2022-12-29T03:31:33;95781.81;;;6.19;49.12
44751;BME280;30477;48.224;11.470;2022-12-29T03:34:00;95776.47;;;6.22;49.12
44751;BME280;30477;48.224;11.470;2022-12-29T03:36:38;95765.00;;;6.26;49.09
44751;BME280;30477;48.224;11.470;2022-12-29T03:39:09;95765.81;;;6.26;48.87
44751;BME280;30477;48.224;11.470;2022-12-29T03:41:38;95769.19;;;6.27;48.97
44751;BME280;30477;48.224;11.470;2022-12-29T03:44:06;95763.84;;;6.30;48.98
44751;BME280;30477;48.224;11.470;2022-12-29T03:46:32;95767.91;;;6.33;48.87
44751;BME280;30477;48.224;11.470;2022-12-29T03:48:57;95764.28;;;6.35;48.82
44751;BME280;30477;48.224;11.470;2022-12-29T03:51:22;95769.28;;;6.37;48.75
44751;BME280;30477;48.224;11.470;2022-12-29T03:53:48;95765.78;;;6.38;48.80
44751;BME280;30477;48.224;11.470;2022-12-29T03:56:13;95769.84;;;6.40;48.74
44751;BME280;30477;48.224;11.470;2022-12-29T03:58:38;95772.19;;;6.43;48.61
44751;BME280;30477;48.224;11.470;2022-12-29T04:01:04;95771.25;;;6.44;48.54
44751;BME280;30477;48.224;11.470;2022-12-29T04:03:29;95761.66;;;6.46;48.49
44751;BME280;30477;48.224;11.470;2022-12-29T04:05:54;95769.25;;;6.48;48.47
44751;BME280;30477;48.224;11.470;2022-12-29T04:08:20;95770.75;;;6.50;48.31
44751;BME280;30477;48.224;11.470;2022-12-29T04:10:45;95774.97;;;6.52;48.18
44751;BME280;30477;48.224;11.470;2022-12-29T04:13:10;95772.28;;;6.53;48.35
44751;BME280;30477;48.224;11.470;2022-12-29T04:15:36;95779.84;;;6.55;48.34
44751;BME280;30477;48.224;11.470;2022-12-29T04:18:01;95780.56;;;6.57;48.30
44751;BME280;30477;48.224;11.470;2022-12-29T04:20:26;95773.78;;;6.56;48.46
44751;BME280;30477;48.224;11.470;2022-12-29T04:23:10;95777.97;;;6.57;48.28
44751;BME280;30477;48.224;11.470;2022-12-29T04:25:37;95768.66;;;6.56;48.42
44751;BME280;30477;48.224;11.470;2022-12-29T04:28:02;95760.69;;;6.59;48.29
44751;BME280;30477;48.224;11.470;2022-12-29T04:30:28;95769.09;;;6.61;48.34
44751;BME280;30477;48.224;11.470;2022-12-29T04:32:53;95759.59;;;6.61;48.42
44751;BME280;30477;48.224;11.470;2022-12-29T04:35:18;95758.69;;;6.62;48.33
44751;BME280;30477;48.224;11.470;2022-12-29T04:37:44;95754.47;;;6.61;48.32
44751;BME280;30477;48.224;11.470;2022-12-29T04:40:10;95754.34;;;6.63;48.47
44751;BME280;30477;48.224;11.470;2022-12-29T04:42:35;95761.69;;;6.67;48.42
44751;BME280;30477;48.224;11.470;2022-12-29T04:45:01;95748.97;;;6.66;48.27
44751;BME280;30477;48.224;11.470;2022-12-29T04:47:26;95759.00;;;6.69;48.25
44751;BME280;30477;48.224;11.470;2022-12-29T04:49:52;95761.56;;;6.69;48.25
44751;BME280;30477;48.224;11.470;2022-12-29T04:52:17;95758.78;;;6.72;48.06
44751;BME280;30477;48.224;11.470;2022-12-29T04:54:42;95761.47;;;6.70;48.13
44751;BME280;30477;48.224;11.470;2022-12-29T04:57:07;95768.22;;;6.71;48.10
44751;BME280;30477;48.224;11.470;2022-12-29T04:59:33;95766.84;;;6.67;48.04
44751;BME280;30477;48.224;11.470;2022-12-29T05:01:58;95758.44;;;6.65;47.88
44751;BME280;30477;48.224;11.470;2022-12-29T05:04:24;95765.34;;;6.65;48.16
44751;BME280;30477;48.224;11.470;2022-12-29T05:06:49;95760.88;;;6.67;48.25
44751;BME280;30477;48.224;11.470;2022-12-29T05:09:14;95759.00;;;6.69;47.99
44751;BME280;30477;48.224;11.470;2022-12-29T05:11:40;95765.78;;;6.70;48.01
44751;BME280;30477;48.224;11.470;2022-12-29T05:14:05;95761.47;;;6.70;48.16
44751;BME280;30477;48.224;11.470;2022-12-29T05:16:30;95765.53;;;6.73;48.13
44751;BME280;30477;48.224;11.470;2022-12-29T05:18:55;95763.91;;;6.72;48.09
44751;BME280;30477;48.224;11.470;2022-12-29T05:21:21;95770.00;;;6.71;47.98
44751;BME280;30477;48.224;11.470;2022-12-29T05:23:46;95769.88;;;6.73;48.12
44751;BME280;30477;48.224;11.470;2022-12-29T05:26:12;95762.97;;;6.73;47.90
44751;BME280;30477;48.224;11.470;2022-12-29T05:28:37;95762.84;;;6.75;47.95
44751;BME280;30477;48.224;11.470;2022-12-29T05:31:02;95759.22;;;6.77;47.89
44751;BME280;30477;48.224;11.470;2022-12-29T05:33:28;95755.00;;;6.76;47.97
44751;BME280;30477;48.224;11.470;2022-12-29T05:35:53;95755.00;;;6.76;47.94
44751;BME280;30477;48.224;11.470;2022-12-29T05:38:18;95752.88;;;6.81;47.97
44751;BME280;30477;48.224;11.470;2022-12-29T05:40:44;95758.94;;;6.80;47.83
44751;BME280;30477;48.224;11.470;2022-12-29T05:43:10;95749.34;;;6.82;47.95
44751;BME280;30477;48.224;11.470;2022-12-29T05:45:35;95748.31;;;6.85;47.89
44751;BME280;30477;48.224;11.470;2022-12-29T05:48:01;95756.72;;;6.87;47.69
44751;BME280;30477;48.224;11.470;2022-12-29T05:50:26;95755.66;;;6.89;47.65
44751;BME280;30477;48.224;11.470;2022-12-29T05:52:52;95757.94;;;6.93;47.44
44751;BME280;30477;48.224;11.470;2022-12-29T05:55:17;95746.72;;;6.94;47.29
44751;BME280;30477;48.224;11.470;2022-12-29T05:57:43;95757.84;;;6.94;47.35
44751;BME280;30477;48.224;11.470;2022-12-29T06:00:08;95755.03;;;6.97;47.18
44751;BME280;30477;48.224;11.470;2022-12-29T06:02:34;95748.66;;;7.01;47.17
44751;BME280;30477;48.224;11.470;2022-12-29T06:04:59;95758.97;;;7.01;46.91
44751;BME280;30477;48.224;11.470;2022-12-29T06:07:24;95749.50;;;7.02;46.83
44751;BME280;30477;48.224;11.470;2022-12-29T06:09:50;95758.72;;;7.04;46.81
44751;BME280;30477;48.224;11.470;2022-12-29T06:12:15;95750.88;;;7.06;46.72
44751;BME280;30477;48.224;11.470;2022-12-29T06:14:41;95757.41;;;7.10;46.66
44751;BME280;30477;48.224;11.470;2022-12-29T06:17:07;95756.44;;;7.11;46.66
44751;BME280;30477;48.224;11.470;2022-12-29T06:19:32;95759.84;;;7.11;46.51
44751;BME280;30477;48.224;11.470;2022-12-29T06:21:57;95758.09;;;7.12;46.38
44751;BME280;30477;48.224;11.470;2022-12-29T06:24:23;95766.50;;;7.14;46.48
44751;BME280;30477;48.224;11.470;2022-12-29T06:26:48;95765.56;;;7.15;46.23
44751;BME280;30477;48.224;11.470;2022-12-29T06:29:13;95760.16;;;7.18;46.40
44751;BME280;30477;48.224;11.470;2022-12-29T06:31:42;95760.03;;;7.20;46.44
44751;BME280;30477;48.224;11.470;2022-12-29T06:34:08;95752.88;;;7.23;46.18
44751;BME280;30477;48.224;11.470;2022-12-29T06:36:34;95752.06;;;7.23;46.11
44751;BME280;30477;48.224;11.470;2022-12-29T06:38:59;95751.00;;;7.25;46.17
44751;BME280;30477;48.224;11.470;2022-12-29T06:41:24;95759.97;;;7.31;46.03
44751;BME280;30477;48.224;11.470;2022-12-29T06:43:50;95746.59;;;7.37;45.61
44751;BME280;30477;48.224;11.470;2022-12-29T06:46:15;95749.47;;;7.44;45.78
44751;BME280;30477;48.224;11.470;2022-12-29T06:48:40;95747.56;;;7.46;45.71
44751;BME280;30477;48.224;11.470;2022-12-29T06:51:07;95753.53;;;7.46;45.67
44751;BME280;30477;48.224;11.470;2022-12-29T06:53:32;95751.06;;;7.45;45.71
44751;BME280;30477;48.224;11.470;2022-12-29T06:55:57;95763.03;;;7.46;45.58
44751;BME280;30477;48.224;11.470;2022-12-29T06:58:23;95762.47;;;7.42;45.49
44751;BME280;30477;48.224;11.470;2022-12-29T07:00:48;95756.75;;;7.39;45.55
44751;BME280;30477;48.224;11.470;2022-12-29T07:03:14;95761.88;;;7.39;45.66
44751;BME280;30477;48.224;11.470;2022-12-29T07:05:39;95767.31;;;7.36;45.76
44751;BME280;30477;48.224;11.470;2022-12-29T07:08:04;95780.88;;;7.38;45.87
44751;BME280;30477;48.224;11.470;2022-12-29T07:10:30;95784.63;;;7.34;45.74
44751;BME280;30477;48.224;11.470;2022-12-29T07:12:56;95779.59;;;7.32;45.97
44751;BME280;30477;48.224;11.470;2022-12-29T07:15:21;95796.00;;;7.31;45.96
44751;BME280;30477;48.224;11.470;2022-12-29T07:17:47;95794.81;;;7.35;46.01
44751;BME280;30477;48.224;11.470;2022-12-29T07:20:14;95794.44;;;7.40;46.00
44751;BME280;30477;48.224;11.470;2022-12-29T07:22:40;95790.91;;;7.41;45.96
44751;BME280;30477;48.224;11.470;2022-12-29T07:25:05;95799.63;;;7.49;46.02
44751;BME280;30477;48.224;11.470;2022-12-29T07:27:31;95803.44;;;7.55;45.98
44751;BME280;30477;48.224;11.470;2022-12-29T07:29:56;95804.94;;;7.58;46.01
44751;BME280;30477;48.224;11.470;2022-12-29T07:32:21;95804.81;;;7.59;46.20
44751;BME280;30477;48.224;11.470;2022-12-29T07:34:47;95806.47;;;7.60;45.80
44751;BME280;30477;48.224;11.470;2022-12-29T07:37:14;95814.88;;;7.62;45.99
44751;BME280;30477;48.224;11.470;2022-12-29T07:39:39;95808.09;;;7.61;46.06
44751;BME280;30477;48.224;11.470;2022-12-29T07:42:05;95808.09;;;7.61;45.98
44751;BME280;30477;48.224;11.470;2022-12-29T07:44:30;95811.63;;;7.60;46.04
44751;BME280;30477;48.224;11.470;2022-12-29T07:46:56;95814.19;;;7.60;46.14
44751;BME280;30477;48.224;11.470;2022-12-29T07:49:21;95806.84;;;7.56;46.21
44751;BME280;30477;48.224;11.470;2022-12-29T07:51:47;95806.72;;;7.57;46.27
44751;BME280;30477;48.224;11.470;2022-12-29T07:54:12;95804.41;;;7.54;46.30
44751;BME280;30477;48.224;11.470;2022-12-29T07:56:38;95809.69;;;7.52;46.45
44751;BME280;30477;48.224;11.470;2022-12-29T07:59:03;95814.03;;;7.52;46.48
44751;BME280;30477;48.224;11.470;2022-12-29T08:01:29;95802.53;;;7.56;46.29
44751;BME280;30477;48.224;11.470;2022-12-29T08:03:54;95799.69;;;7.59;46.20
44751;BME280;30477;48.224;11.470;2022-12-29T08:06:20;95799.03;;;7.67;45.84
44751;BME280;30477;48.224;11.470;2022-12-29T08:08:45;95796.78;;;7.73;45.61
44751;BME280;30477;48.224;11.470;2022-12-29T08:11:10;95807.38;;;7.80;45.61
44751;BME280;30477;48.224;11.470;2022-12-29T08:13:36;95801.56;;;7.88;45.25
44751;BME280;30477;48.224;11.470;2022-12-29T08:16:01;95790.47;;;7.97;45.17
44751;BME280;30477;48.224;11.470;2022-12-29T08:18:26;95794.31;;;8.03;45.13
44751;BME280;30477;48.224;11.470;2022-12-29T08:20:52;95789.03;;;8.04;45.12
44751;BME280;30477;48.224;11.470;2022-12-29T08:23:17;95799.06;;;8.07;45.11
44751;BME280;30477;48.224;11.470;2022-12-29T08:25:42;95795.56;;;8.08;45.23
44751;BME280;30477;48.224;11.470;2022-12-29T08:28:08;95805.59;;;8.11;45.10
44751;BME280;30477;48.224;11.470;2022-12-29T08:30:33;95806.84;;;8.17;45.24
44751;BME280;30477;48.224;11.470;2022-12-29T08:32:58;95803.16;;;8.20;44.90
44751;BME280;30477;48.224;11.470;2022-12-29T08:35:24;95803.81;;;8.12;45.05
44751;BME280;30477;48.224;11.470;2022-12-29T08:37:49;95805.47;;;8.13;45.19
44751;BME280;30477;48.224;11.470;2022-12-29T08:40:14;95805.31;;;8.14;45.01
44751;BME280;30477;48.224;11.470;2022-12-29T08:42:40;95809.94;;;8.11;45.22
44751;BME280;30477;48.224;11.470;2022-12-29T08:45:06;95817.50;;;8.12;45.13
44751;BME280;30477;48.224;11.470;2022-12-29T08:47:31;95812.13;;;8.16;45.28
44751;BME280;30477;48.224;11.470;2022-12-29T08:49:57;95814.00;;;8.13;45.26
44751;BME280;30477;48.224;11.470;2022-12-29T08:52:22;95818.06;;;8.16;45.28
44751;BME280;30477;48.224;11.470;2022-12-29T08:54:48;95822.16;;;8.19;45.37
44751;BME280;30477;48.224;11.470;2022-12-29T08:57:13;95825.97;;;8.24;45.54
44751;BME280;30477;48.224;11.470;2022-12-29T08:59:38;95832.63;;;8.27;45.47
44751;BME280;30477;48.224;11.470;2022-12-29T09:02:04;95829.81;;;8.30;45.45
44751;BME280;30477;48.224;11.470;2022-12-29T09:04:29;95831.16;;;8.34;45.63
44751;BME280;30477;48.224;11.470;2022-12-29T09:06:54;95826.41;;;8.39;45.70
44751;BME280;30477;48.224;11.470;2022-12-29T09:09:20;95831.19;;;8.44;45.48
44751;BME280;30477;48.224;11.470;2022-12-29T09:11:46;95837.59;;;8.49;45.56
44751;BME280;30477;48.224;11.470;2022-12-29T09:14:12;95828.25;;;8.58;45.41
44751;BME280;30477;48.224;11.470;2022-12-29T09:16:38;95820.94;;;8.63;45.45
44751;BME280;30477;48.224;11.470;2022-12-29T09:19:03;95829.50;;;8.73;45.27
44751;BME280;30477;48.224;11.470;2022-12-29T09:21:29;95833.72;;;8.84;45.21
44751;BME280;30477;48.224;11.470;2022-12-29T09:23:54;95821.38;;;8.98;44.88
44751;BME280;30477;48.224;11.470;2022-12-29T09:26:19;95818.63;;;9.09;44.59
44751;BME280;30477;48.224;11.470;2022-12-29T09:28:45;95822.03;;;9.19;44.35
44751;BME280;30477;48.224;11.470;2022-12-29T09:31:11;95818.75;;;9.27;44.42
44751;BME280;30477;48.224;11.470;2022-12-29T09:33:37;95813.84;;;9.33;44.18
44751;BME280;30477;48.224;11.470;2022-12-29T09:36:03;95809.75;;;9.41;44.26
44751;BME280;30477;48.224;11.470;2022-12-29T09:38:28;95805.94;;;9.45;43.91
44751;BME280;30477;48.224;11.470;2022-12-29T09:41:05;95812.47;;;9.49;43.62
44751;BME280;30477;48.224;11.470;2022-12-29T09:46:28;95821.16;;;9.58;43.07
44751;BME280;30477;48.224;11.470;2022-12-29T09:51:38;95811.22;;;9.63;42.87
44751;BME280;30477;48.224;11.470;2022-12-29T09:54:37;95813.94;;;9.61;43.00
44751;BME280;30477;48.224;11.470;2022-12-29T09:57:14;95809.59;;;9.62;43.11
44751;BME280;30477;48.224;11.470;2022-12-29T09:59:42;95815.72;;;9.61;43.17
44751;BME280;30477;48.224;11.470;2022-12-29T10:04:41;95805.91;;;9.64;42.90
44751;BME280;30477;48.224;11.470;2022-12-29T10:08:14;95810.78;;;9.67;42.82
44751;BME280;30477;48.224;11.470;2022-12-29T10:10:34;95799.50;;;9.68;42.52
44751;BME280;30477;48.224;11.470;2022-12-29T10:13:16;95801.13;;;9.69;42.43
44751;BME280;30477;48.224;11.470;2022-12-29T10:21:30;95808.31;;;9.75;42.32
44751;BME280;30477;48.224;11.470;2022-12-29T10:24:04;95810.78;;;9.77;42.20
44751;BME280;30477;48.224;11.470;2022-12-29T10:26:37;95807.09;;;9.80;41.87
44751;BME280;30477;48.224;11.470;2022-12-29T10:29:05;95810.34;;;9.82;42.09
44751;BME280;30477;48.224;11.470;2022-12-29T10:31:59;95809.41;;;9.83;42.11
44751;BME280;30477;48.224;11.470;2022-12-29T10:34:31;95806.81;;;9.83;41.92
44751;BME280;30477;48.224;11.470;2022-12-29T10:37:30;95807.47;;;9.85;41.65
44751;BME280;30477;48.224;11.470;2022-12-29T10:39:58;95792.50;;;9.88;41.89
44751;BME280;30477;48.224;11.470;2022-12-29T10:42:36;95789.47;;;9.93;42.04
44751;BME280;30477;48.224;11.470;2022-12-29T10:45:10;95787.56;;;9.95;41.79
44751;BME280;30477;48.224;11.470;2022-12-29T10:47:49;95787.16;;;10.00;41.92
44751;BME280;30477;48.224;11.470;2022-12-29T10:50:17;95784.13;;;10.04;41.93
44751;BME280;30477;48.224;11.470;2022-12-29T10:52:42;95779.63;;;10.06;41.87
44751;BME280;30477;48.224;11.470;2022-12-29T10:55:28;95774.47;;;10.06;41.79
44751;BME280;30477;48.224;11.470;2022-12-29T10:58:00;95780.44;;;10.07;41.71
44751;BME280;30477;48.224;11.470;2022-12-29T11:00:30;95768.31;;;10.07;41.69
44751;BME280;30477;48.224;11.470;2022-12-29T11:05:59;95758.06;;;10.15;41.53
44751;BME280;30477;48.224;11.470;2022-12-29T11:08:28;95762.81;;;10.20;41.35
44751;BME280;30477;48.224;11.470;2022-12-29T11:11:02;95755.31;;;10.27;41.30
44751;BME280;30477;48.224;11.470;2022-12-29T11:13:30;95759.63;;;10.36;41.54
44751;BME280;30477;48.224;11.470;2022-12-29T11:15:56;95756.81;;;10.47;41.43
44751;BME280;30477;48.224;11.470;2022-12-29T11:18:48;95754.84;;;10.59;40.83
44751;BME280;30477;48.224;11.470;2022-12-29T11:21:34;95758.31;;;10.68;40.43
44751;BME280;30477;48.224;11.470;2022-12-29T11:24:17;95753.66;;;10.71;40.38
44751;BME280;30477;48.224;11.470;2022-12-29T11:26:43;95752.53;;;10.74;40.32
44751;BME280;30477;48.224;11.470;2022-12-29T11:31:46;95741.22;;;10.75;40.58
44751;BME280;30477;48.224;11.470;2022-12-29T11:34:23;95741.88;;;10.77;40.51
44751;BME280;30477;48.224;11.470;2022-12-29T11:36:52;95738.53;;;10.85;40.56
44751;BME280;30477;48.224;11.470;2022-12-29T11:39:26;95738.09;;;10.89;40.61
44751;BME280;30477;48.224;11.470;2022-12-29T11:41:53;95730.03;;;10.92;40.26
44751;BME280;30477;48.224;11.470;2022-12-29T11:44:19;95725.53;;;10.94;40.51
44751;BME280;30477;48.224;11.470;2022-12-29T11:46:47;95733.13;;;10.96;40.55
44751;BME280;30477;48.224;11.470;2022-12-29T11:49:20;95724.31;;;11.07;40.69
44751;BME280;30477;48.224;11.470;2022-12-29T11:51:48;95720.81;;;11.16;40.29
44751;BME280;30477;48.224;11.470;2022-12-29T11:54:22;95716.63;;;11.23;40.15
44751;BME280;30477;48.224;11.470;2022-12-29T11:56:49;95728.31;;;11.27;40.46
44751;BME280;30477;48.224;11.470;2022-12-29T11:59:36;95710.25;;;11.35;40.29
44751;BME280;30477;48.224;11.470;2022-12-29T12:02:34;95713.91;;;11.51;39.95
44751;BME280;30477;48.224;11.470;2022-12-29T12:06:10;95712.13;;;11.51;39.91
44751;BME280;30477;48.224;11.470;2022-12-29T12:10:39;95720.09;;;11.58;39.24
44751;BME280;30477;48.224;11.470;2022-12-29T12:16:04;95708.59;;;11.61;39.52
44751;BME280;30477;48.224;11.470;2022-12-29T12:19:00;95699.53;;;11.65;39.08
44751;BME280;30477;48.224;11.470;2022-12-29T12:21:42;95701.63;;;11.61;39.06
44751;BME280;30477;48.224;11.470;2022-12-29T12:25:09;95703.41;;;11.61;39.40
44751;BME280;30477;48.224;11.470;2022-12-29T12:27:12;95704.53;;;11.58;39.19
44751;BME280;30477;48.224;11.470;2022-12-29T12:30:09;95704.53;;;11.58;39.71
44751;BME280;30477;48.224;11.470;2022-12-29T12:32:46;95698.72;;;11.64;39.89
44751;BME280;30477;48.224;11.470;2022-12-29T12:35:15;95690.34;;;11.70;40.12
44751;BME280;30477;48.224;11.470;2022-12-29T12:37:58;95697.44;;;11.68;40.28
44751;BME280;30477;48.224;11.470;2022-12-29T12:54:19;95679.38;;;11.85;42.29
44751;BME280;30477;48.224;11.470;2022-12-29T12:57:00;95692.59;;;11.73;41.80
44751;BME280;30477;48.224;11.470;2022-12-29T13:02:24;95687.69;;;11.62;41.74
44751;BME280;30477;48.224;11.470;2022-12-29T13:08:06;95686.72;;;11.63;42.14
44751;BME280;30477;48.224;11.470;2022-12-29T13:10:55;95682.66;;;11.61;42.40
44751;BME280;30477;48.224;11.470;2022-12-29T13:24:06;95677.47;;;11.61;44.05
44751;BME280;30477;48.224;11.470;2022-12-29T13:26:40;95680.06;;;11.61;44.31
44751;BME280;30477;48.224;11.470;2022-12-29T13:29:22;95685.13;;;11.62;44.79
44751;BME280;30477;48.224;11.470;2022-12-29T13:32:15;95683.47;;;11.61;45.11
44751;BME280;30477;48.224;11.470;2022-12-29T13:35:01;95688.50;;;11.63;45.88
44751;BME280;30477;48.224;11.470;2022-12-29T13:37:31;95694.50;;;11.63;46.08
44751;BME280;30477;48.224;11.470;2022-12-29T13:40:02;95684.44;;;11.60;46.40
44751;BME280;30477;48.224;11.470;2022-12-29T13:42:30;95691.91;;;11.63;46.52
44751;BME280;30477;48.224;11.470;2022-12-29T13:45:06;95690.94;;;11.64;46.56
44751;BME280;30477;48.224;11.470;2022-12-29T13:47:40;95693.53;;;11.64;46.48
44751;BME280;30477;48.224;11.470;2022-12-29T13:50:22;95687.56;;;11.64;46.49
44751;BME280;30477;48.224;11.470;2022-12-29T13:55:39;95688.66;;;11.61;46.44
44751;BME280;30477;48.224;11.470;2022-12-29T14:00:49;95688.19;;;11.57;46.62
44751;BME280;30477;48.224;11.470;2022-12-29T14:06:19;95691.38;;;11.51;46.45
44751;BME280;30477;48.224;11.470;2022-12-29T14:08:46;95686.34;;;11.50;46.46
44751;BME280;30477;48.224;11.470;2022-12-29T14:11:14;95684.75;;;11.49;46.63
44751;BME280;30477;48.224;11.470;2022-12-29T14:13:44;95687.31;;;11.49;46.60
44751;BME280;30477;48.224;11.470;2022-12-29T14:16:25;95690.06;;;11.47;46.78
44751;BME280;30477;48.224;11.470;2022-12-29T14:18:51;95688.44;;;11.46;46.92
44751;BME280;30477;48.224;11.470;2022-12-29T14:21:21;95683.41;;;11.45;47.07
44751;BME280;30477;48.224;11.470;2022-12-29T14:23:50;95680.16;;;11.43;47.28
44751;BME280;30477;48.224;11.470;2022-12-29T14:28:47;95695.06;;;11.41;47.17
44751;BME280;30477;48.224;11.470;2022-12-29T14:36:39;95695.53;;;11.44;47.90
44751;BME280;30477;48.224;11.470;2022-12-29T14:42:00;95698.56;;;11.31;48.01
44751;BME280;30477;48.224;11.470;2022-12-29T14:44:28;95703.75;;;11.31;47.72
44751;BME280;30477;48.224;11.470;2022-12-29T14:49:24;95700.94;;;11.25;48.21
44751;BME280;30477;48.224;11.470;2022-12-29T14:52:03;95706.59;;;11.20;48.22
44751;BME280;30477;48.224;11.470;2022-12-29T14:57:08;95705.59;;;11.13;48.61
44751;BME280;30477;48.224;11.470;2022-12-29T14:59:35;95707.53;;;11.11;48.62
44751;BME280;30477;48.224;11.470;2022-12-29T15:02:16;95700.19;;;11.06;48.90
44751;BME280;30477;48.224;11.470;2022-12-29T15:04:43;95701.31;;;11.04;48.98
44751;BME280;30477;48.224;11.470;2022-12-29T15:07:09;95707.75;;;11.00;49.36
44751;BME280;30477;48.224;11.470;2022-12-29T15:09:36;95709.00;;;10.95;49.39
44751;BME280;30477;48.224;11.470;2022-12-29T15:12:21;95715.00;;;10.96;49.45
44751;BME280;30477;48.224;11.470;2022-12-29T15:14:54;95712.56;;;10.94;49.23
44751;BME280;30477;48.224;11.470;2022-12-29T15:17:32;95715.63;;;10.90;49.42
44751;BME280;30477;48.224;11.470;2022-12-29T15:20:01;95711.25;;;10.90;49.49
44751;BME280;30477;48.224;11.470;2022-12-29T15:22:27;95719.03;;;10.90;49.51